South Paris, Maine
Current Conditions -  °F | °C
As of 2:55 AM on Friday 24 Oct 2014 (Local Time) from KLEW Reporting Station
Overcast Overcast  
Wind Chill: 40°   Ceiling: 1000
Heat Index: 46°   Visibility: 9mi
Dew Point: 43°   Wind: 14mph
Humidity: 87%   Direction: 10°N
Pressure: 29.69"   Gusts: NA
Location:  44.22°N, 70.51°W
Report Text: KLEW 240655Z AUTO 01012KT 9SM BKN010 OVC017 08/06 A2969 RMK AO1
Loading
Personal Weather Stations






























Interactive Weather Map
Tropical Storm Tracking
New forecast layout! Learn more

10-Day Weather Forecast

Advertisements
Track Severe Weather on mobile